sensor_id;sensor_type;location;lat;lon;timestamp;pressure;altitude;pressure_sealevel;temperature;humidity
2192;BME280;1102;49.718;11.902;2022-12-26T00:01:01;96170.19;;;3.01;100.00
2192;BME280;1102;49.718;11.902;2022-12-26T00:03:28;96153.59;;;2.92;100.00
2192;BME280;1102;49.718;11.902;2022-12-26T00:05:56;96168.16;;;2.98;100.00
2192;BME280;1102;49.718;11.902;2022-12-26T00:08:23;96172.59;;;2.97;100.00
2192;BME280;1102;49.718;11.902;2022-12-26T00:10:49;96165.03;;;2.96;100.00
2192;BME280;1102;49.718;11.902;2022-12-26T00:13:16;96183.25;;;3.20;100.00
2192;BME280;1102;49.718;11.902;2022-12-26T00:16:10;96206.00;;;3.38;100.00
2192;BME280;1102;49.718;11.902;2022-12-26T00:18:38;96214.63;;;3.39;100.00
2192;BME280;1102;49.718;11.902;2022-12-26T00:21:06;96183.75;;;3.22;100.00
2192;BME280;1102;49.718;11.902;2022-12-26T00:23:33;96210.56;;;3.46;100.00
2192;BME280;1102;49.718;11.902;2022-12-26T00:26:05;96194.00;;;3.37;100.00
2192;BME280;1102;49.718;11.902;2022-12-26T00:28:35;96218.97;;;3.43;100.00
2192;BME280;1102;49.718;11.902;2022-12-26T00:31:07;96218.69;;;3.26;100.00
2192;BME280;1102;49.718;11.902;2022-12-26T00:33:35;96230.16;;;3.06;100.00
2192;BME280;1102;49.718;11.902;2022-12-26T00:36:08;96212.47;;;3.03;100.00
2192;BME280;1102;49.718;11.902;2022-12-26T00:38:37;96200.34;;;3.12;100.00
2192;BME280;1102;49.718;11.902;2022-12-26T00:41:05;96215.09;;;3.22;100.00
2192;BME280;1102;49.718;11.902;2022-12-26T00:43:32;96223.56;;;3.33;100.00
2192;BME280;1102;49.718;11.902;2022-12-26T00:45:59;96181.06;;;3.08;100.00
2192;BME280;1102;49.718;11.902;2022-12-26T00:48:26;96177.72;;;3.03;100.00
2192;BME280;1102;49.718;11.902;2022-12-26T00:50:54;96207.31;;;3.17;100.00
2192;BME280;1102;49.718;11.902;2022-12-26T00:53:21;96204.72;;;3.17;100.00
2192;BME280;1102;49.718;11.902;2022-12-26T00:55:48;96227.53;;;3.30;100.00
2192;BME280;1102;49.718;11.902;2022-12-26T00:58:15;96240.88;;;3.29;100.00
2192;BME280;1102;49.718;11.902;2022-12-26T01:00:42;96209.81;;;3.08;100.00
2192;BME280;1102;49.718;11.902;2022-12-26T01:03:10;96230.88;;;3.36;100.00
2192;BME280;1102;49.718;11.902;2022-12-26T01:05:42;96219.75;;;3.44;100.00
2192;BME280;1102;49.718;11.902;2022-12-26T01:08:09;96231.75;;;3.45;100.00
2192;BME280;1102;49.718;11.902;2022-12-26T01:10:46;96197.59;;;3.22;100.00
2192;BME280;1102;49.718;11.902;2022-12-26T01:13:13;96175.63;;;3.05;100.00
2192;BME280;1102;49.718;11.902;2022-12-26T01:15:49;96199.75;;;3.15;100.00
2192;BME280;1102;49.718;11.902;2022-12-26T01:18:16;96191.66;;;3.17;100.00
2192;BME280;1102;49.718;11.902;2022-12-26T01:20:43;96161.09;;;2.99;100.00
2192;BME280;1102;49.718;11.902;2022-12-26T01:23:10;96158.19;;;3.00;100.00
2192;BME280;1102;49.718;11.902;2022-12-26T01:25:38;96214.66;;;3.34;100.00
2192;BME280;1102;49.718;11.902;2022-12-26T01:28:25;96166.88;;;2.95;100.00
2192;BME280;1102;49.718;11.902;2022-12-26T01:30:51;96182.66;;;3.04;100.00
2192;BME280;1102;49.718;11.902;2022-12-26T01:33:18;96182.84;;;3.13;100.00
2192;BME280;1102;49.718;11.902;2022-12-26T01:35:51;96183.13;;;3.11;100.00
2192;BME280;1102;49.718;11.902;2022-12-26T01:38:19;96206.06;;;3.33;100.00
2192;BME280;1102;49.718;11.902;2022-12-26T01:40:47;96209.78;;;3.46;100.00
2192;BME280;1102;49.718;11.902;2022-12-26T01:43:14;96187.06;;;3.46;100.00
2192;BME280;1102;49.718;11.902;2022-12-26T01:45:48;96207.94;;;3.84;100.00
2192;BME280;1102;49.718;11.902;2022-12-26T01:48:20;96212.38;;;3.83;100.00
2192;BME280;1102;49.718;11.902;2022-12-26T01:50:50;96218.88;;;3.86;100.00
2192;BME280;1102;49.718;11.902;2022-12-26T01:53:28;96191.69;;;3.68;100.00
2192;BME280;1102;49.718;11.902;2022-12-26T01:56:03;96189.25;;;3.58;100.00
2192;BME280;1102;49.718;11.902;2022-12-26T01:58:36;96217.22;;;3.58;100.00
2192;BME280;1102;49.718;11.902;2022-12-26T02:01:05;96178.66;;;3.31;100.00
2192;BME280;1102;49.718;11.902;2022-12-26T02:03:35;96183.47;;;3.23;100.00
2192;BME280;1102;49.718;11.902;2022-12-26T02:06:22;96208.69;;;3.52;100.00
2192;BME280;1102;49.718;11.902;2022-12-26T02:08:48;96205.78;;;3.53;100.00
2192;BME280;1102;49.718;11.902;2022-12-26T02:11:19;96199.91;;;3.62;100.00
2192;BME280;1102;49.718;11.902;2022-12-26T02:13:47;96182.41;;;3.62;100.00
2192;BME280;1102;49.718;11.902;2022-12-26T02:16:15;96199.44;;;3.92;100.00
2192;BME280;1102;49.718;11.902;2022-12-26T02:18:42;96188.81;;;3.70;100.00
2192;BME280;1102;49.718;11.902;2022-12-26T02:39:26;96190.34;;;3.71;100.00
2192;BME280;1102;49.718;11.902;2022-12-26T02:42:19;96194.53;;;3.72;100.00
2192;BME280;1102;49.718;11.902;2022-12-26T02:44:53;96184.19;;;3.80;100.00
2192;BME280;1102;49.718;11.902;2022-12-26T02:47:55;96177.72;;;3.78;100.00
2192;BME280;1102;49.718;11.902;2022-12-26T02:56:35;96180.28;;;3.45;100.00
2192;BME280;1102;49.718;11.902;2022-12-26T03:02:42;96163.41;;;3.38;100.00
2192;BME280;1102;49.718;11.902;2022-12-26T03:05:41;96184.25;;;3.62;100.00
2192;BME280;1102;49.718;11.902;2022-12-26T03:08:38;96186.22;;;3.51;100.00
2192;BME280;1102;49.718;11.902;2022-12-26T03:11:31;96168.00;;;3.27;100.00
2192;BME280;1102;49.718;11.902;2022-12-26T03:14:22;96172.31;;;3.37;100.00
2192;BME280;1102;49.718;11.902;2022-12-26T03:16:55;96144.78;;;3.25;100.00
2192;BME280;1102;49.718;11.902;2022-12-26T03:19:43;96176.09;;;3.63;100.00
2192;BME280;1102;49.718;11.902;2022-12-26T03:24:57;96127.63;;;3.38;100.00
2192;BME280;1102;49.718;11.902;2022-12-26T03:27:44;96150.41;;;3.51;100.00
2192;BME280;1102;49.718;11.902;2022-12-26T03:30:11;96185.78;;;3.63;100.00
2192;BME280;1102;49.718;11.902;2022-12-26T03:32:57;96106.16;;;3.04;100.00
2192;BME280;1102;49.718;11.902;2022-12-26T03:35:26;96190.09;;;3.53;100.00
2192;BME280;1102;49.718;11.902;2022-12-26T03:40:31;96168.34;;;3.39;100.00
2192;BME280;1102;49.718;11.902;2022-12-26T03:44:27;96165.47;;;3.41;100.00
2192;BME280;1102;49.718;11.902;2022-12-26T03:47:10;96187.41;;;3.59;100.00
2192;BME280;1102;49.718;11.902;2022-12-26T03:50:02;96178.66;;;3.49;100.00
2192;BME280;1102;49.718;11.902;2022-12-26T03:53:09;96199.16;;;3.61;100.00
2192;BME280;1102;49.718;11.902;2022-12-26T04:01:36;96180.22;;;3.32;100.00
2192;BME280;1102;49.718;11.902;2022-12-26T04:04:25;96164.53;;;3.32;100.00
2192;BME280;1102;49.718;11.902;2022-12-26T04:07:23;96192.56;;;3.64;100.00
2192;BME280;1102;49.718;11.902;2022-12-26T04:13:19;96182.94;;;3.78;100.00
2192;BME280;1102;49.718;11.902;2022-12-26T04:16:15;96184.53;;;3.74;100.00
2192;BME280;1102;49.718;11.902;2022-12-26T04:22:16;96178.59;;;3.87;100.00
2192;BME280;1102;49.718;11.902;2022-12-26T04:25:13;96198.09;;;3.95;100.00
2192;BME280;1102;49.718;11.902;2022-12-26T04:28:20;96183.41;;;3.80;100.00
2192;BME280;1102;49.718;11.902;2022-12-26T04:31:21;96188.56;;;3.85;100.00
2192;BME280;1102;49.718;11.902;2022-12-26T04:34:18;96188.00;;;3.88;100.00
2192;BME280;1102;49.718;11.902;2022-12-26T04:37:08;96162.28;;;3.44;100.00
2192;BME280;1102;49.718;11.902;2022-12-26T04:39:58;96182.97;;;3.40;100.00
2192;BME280;1102;49.718;11.902;2022-12-26T04:42:45;96178.47;;;3.27;100.00
2192;BME280;1102;49.718;11.902;2022-12-26T04:45:51;96140.34;;;3.07;100.00
2192;BME280;1102;49.718;11.902;2022-12-26T04:48:19;96168.50;;;3.29;100.00
2192;BME280;1102;49.718;11.902;2022-12-26T04:51:05;96175.75;;;3.32;100.00
2192;BME280;1102;49.718;11.902;2022-12-26T04:53:32;96167.81;;;3.23;100.00
2192;BME280;1102;49.718;11.902;2022-12-26T04:55:58;96182.34;;;3.30;100.00
2192;BME280;1102;49.718;11.902;2022-12-26T04:58:25;96173.16;;;3.32;100.00
2192;BME280;1102;49.718;11.902;2022-12-26T05:00:57;96115.44;;;2.96;100.00
2192;BME280;1102;49.718;11.902;2022-12-26T05:03:44;96195.19;;;3.45;100.00
2192;BME280;1102;49.718;11.902;2022-12-26T05:06:29;96165.03;;;3.34;100.00
2192;BME280;1102;49.718;11.902;2022-12-26T05:09:17;96196.38;;;3.52;100.00
2192;BME280;1102;49.718;11.902;2022-12-26T05:12:01;96174.22;;;3.31;100.00
2192;BME280;1102;49.718;11.902;2022-12-26T05:14:28;96195.53;;;3.57;100.00
2192;BME280;1102;49.718;11.902;2022-12-26T05:16:58;96178.22;;;3.61;100.00
2192;BME280;1102;49.718;11.902;2022-12-26T05:19:43;96204.69;;;3.73;100.00
2192;BME280;1102;49.718;11.902;2022-12-26T05:22:32;96213.31;;;3.74;100.00
2192;BME280;1102;49.718;11.902;2022-12-26T05:25:19;96207.25;;;3.78;100.00
2192;BME280;1102;49.718;11.902;2022-12-26T05:28:09;96206.66;;;3.81;100.00
2192;BME280;1102;49.718;11.902;2022-12-26T05:30:54;96205.84;;;3.67;100.00
2192;BME280;1102;49.718;11.902;2022-12-26T05:33:21;96167.72;;;3.29;100.00
2192;BME280;1102;49.718;11.902;2022-12-26T05:36:08;96193.13;;;3.42;100.00
2192;BME280;1102;49.718;11.902;2022-12-26T05:38:36;96160.31;;;3.36;100.00
2192;BME280;1102;49.718;11.902;2022-12-26T05:41:03;96167.50;;;3.44;100.00
2192;BME280;1102;49.718;11.902;2022-12-26T05:43:29;96160.44;;;3.44;100.00
2192;BME280;1102;49.718;11.902;2022-12-26T05:45:56;96160.16;;;3.46;100.00
2192;BME280;1102;49.718;11.902;2022-12-26T05:48:23;96151.03;;;3.43;100.00
2192;BME280;1102;49.718;11.902;2022-12-26T05:50:50;96117.16;;;3.38;100.00
2192;BME280;1102;49.718;11.902;2022-12-26T05:53:16;96164.72;;;3.86;100.00
2192;BME280;1102;49.718;11.902;2022-12-26T05:55:44;96134.81;;;3.79;100.00
2192;BME280;1102;49.718;11.902;2022-12-26T05:58:10;96170.38;;;3.94;100.00
2192;BME280;1102;49.718;11.902;2022-12-26T06:00:37;96176.94;;;3.77;100.00
2192;BME280;1102;49.718;11.902;2022-12-26T06:03:04;96141.50;;;3.52;100.00
2192;BME280;1102;49.718;11.902;2022-12-26T06:05:30;96136.28;;;3.52;100.00
2192;BME280;1102;49.718;11.902;2022-12-26T06:07:57;96170.06;;;3.81;100.00
2192;BME280;1102;49.718;11.902;2022-12-26T06:10:24;96160.25;;;3.73;100.00
2192;BME280;1102;49.718;11.902;2022-12-26T06:12:52;96134.88;;;3.74;100.00
2192;BME280;1102;49.718;11.902;2022-12-26T06:15:18;96143.09;;;3.67;100.00
2192;BME280;1102;49.718;11.902;2022-12-26T06:17:45;96147.56;;;3.67;100.00
2192;BME280;1102;49.718;11.902;2022-12-26T06:20:12;96140.28;;;3.64;100.00
2192;BME280;1102;49.718;11.902;2022-12-26T06:22:38;96126.72;;;3.62;100.00
2192;BME280;1102;49.718;11.902;2022-12-26T06:25:06;96158.91;;;3.76;100.00
2192;BME280;1102;49.718;11.902;2022-12-26T06:27:34;96159.78;;;3.85;100.00
2192;BME280;1102;49.718;11.902;2022-12-26T06:30:00;96143.47;;;3.61;100.00
2192;BME280;1102;49.718;11.902;2022-12-26T06:32:27;96130.47;;;3.55;100.00
2192;BME280;1102;49.718;11.902;2022-12-26T06:34:54;96127.00;;;3.60;100.00
2192;BME280;1102;49.718;11.902;2022-12-26T06:37:20;96151.78;;;3.95;100.00
2192;BME280;1102;49.718;11.902;2022-12-26T06:39:47;96167.00;;;3.93;100.00
2192;BME280;1102;49.718;11.902;2022-12-26T06:42:13;96126.50;;;3.58;100.00
2192;BME280;1102;49.718;11.902;2022-12-26T06:44:40;96168.03;;;3.78;100.00
2192;BME280;1102;49.718;11.902;2022-12-26T06:47:07;96147.13;;;3.60;100.00
2192;BME280;1102;49.718;11.902;2022-12-26T06:49:34;96164.22;;;3.71;100.00
2192;BME280;1102;49.718;11.902;2022-12-26T06:52:00;96152.97;;;3.70;100.00
2192;BME280;1102;49.718;11.902;2022-12-26T06:54:27;96139.91;;;3.70;100.00
2192;BME280;1102;49.718;11.902;2022-12-26T06:56:54;96133.84;;;3.75;100.00
2192;BME280;1102;49.718;11.902;2022-12-26T06:59:20;96140.81;;;3.79;100.00
2192;BME280;1102;49.718;11.902;2022-12-26T07:01:47;96138.72;;;3.95;100.00
2192;BME280;1102;49.718;11.902;2022-12-26T07:04:14;96120.09;;;3.83;100.00
2192;BME280;1102;49.718;11.902;2022-12-26T07:06:41;96176.63;;;4.11;100.00
2192;BME280;1102;49.718;11.902;2022-12-26T07:09:13;96146.94;;;3.89;100.00
2192;BME280;1102;49.718;11.902;2022-12-26T07:11:43;96165.03;;;3.85;100.00
2192;BME280;1102;49.718;11.902;2022-12-26T07:14:11;96169.19;;;3.86;100.00
2192;BME280;1102;49.718;11.902;2022-12-26T07:16:39;96178.53;;;3.92;100.00
2192;BME280;1102;49.718;11.902;2022-12-26T07:19:09;96168.63;;;3.89;100.00
2192;BME280;1102;49.718;11.902;2022-12-26T07:21:36;96167.78;;;3.94;100.00
2192;BME280;1102;49.718;11.902;2022-12-26T07:24:13;96177.94;;;3.95;100.00
2192;BME280;1102;49.718;11.902;2022-12-26T07:26:40;96157.75;;;3.82;100.00
2192;BME280;1102;49.718;11.902;2022-12-26T07:29:09;96191.34;;;4.07;100.00
2192;BME280;1102;49.718;11.902;2022-12-26T07:31:35;96158.81;;;3.81;100.00
2192;BME280;1102;49.718;11.902;2022-12-26T07:34:02;96118.38;;;3.60;100.00
2192;BME280;1102;49.718;11.902;2022-12-26T07:36:29;96187.84;;;4.12;100.00
2192;BME280;1102;49.718;11.902;2022-12-26T07:38:58;96166.13;;;3.98;100.00
2192;BME280;1102;49.718;11.902;2022-12-26T07:41:25;96166.81;;;4.03;100.00
2192;BME280;1102;49.718;11.902;2022-12-26T07:44:10;96168.69;;;4.17;100.00
2192;BME280;1102;49.718;11.902;2022-12-26T07:46:37;96194.28;;;4.20;100.00
2192;BME280;1102;49.718;11.902;2022-12-26T07:49:04;96145.25;;;3.79;100.00
2192;BME280;1102;49.718;11.902;2022-12-26T07:51:31;96179.63;;;4.05;100.00
2192;BME280;1102;49.718;11.902;2022-12-26T07:53:57;96161.84;;;3.88;100.00
2192;BME280;1102;49.718;11.902;2022-12-26T07:56:24;96153.91;;;3.93;100.00
2192;BME280;1102;49.718;11.902;2022-12-26T07:58:51;96181.28;;;4.14;100.00
2192;BME280;1102;49.718;11.902;2022-12-26T08:01:17;96155.94;;;3.96;100.00
2192;BME280;1102;49.718;11.902;2022-12-26T08:03:46;96199.19;;;4.07;100.00
2192;BME280;1102;49.718;11.902;2022-12-26T08:06:14;96197.75;;;4.15;100.00
2192;BME280;1102;49.718;11.902;2022-12-26T08:08:40;96172.91;;;3.99;100.00
2192;BME280;1102;49.718;11.902;2022-12-26T08:11:17;96196.78;;;4.11;100.00
2192;BME280;1102;49.718;11.902;2022-12-26T08:13:45;96173.28;;;3.92;100.00
2192;BME280;1102;49.718;11.902;2022-12-26T08:16:12;96159.59;;;3.81;100.00
2192;BME280;1102;49.718;11.902;2022-12-26T08:18:40;96170.09;;;3.95;100.00
2192;BME280;1102;49.718;11.902;2022-12-26T08:21:07;96201.94;;;4.16;100.00
2192;BME280;1102;49.718;11.902;2022-12-26T08:23:34;96165.16;;;3.94;100.00
2192;BME280;1102;49.718;11.902;2022-12-26T08:26:10;96186.72;;;4.18;100.00
2192;BME280;1102;49.718;11.902;2022-12-26T08:28:40;96190.59;;;4.21;100.00
2192;BME280;1102;49.718;11.902;2022-12-26T08:31:09;96206.31;;;4.34;100.00
2192;BME280;1102;49.718;11.902;2022-12-26T08:33:37;96186.81;;;4.27;100.00
2192;BME280;1102;49.718;11.902;2022-12-26T08:36:09;96196.81;;;4.38;100.00
2192;BME280;1102;49.718;11.902;2022-12-26T08:38:37;96172.09;;;4.17;100.00
2192;BME280;1102;49.718;11.902;2022-12-26T08:41:04;96189.94;;;4.29;100.00
2192;BME280;1102;49.718;11.902;2022-12-26T08:43:31;96204.09;;;4.41;100.00
2192;BME280;1102;49.718;11.902;2022-12-26T08:46:19;96186.03;;;4.26;100.00
2192;BME280;1102;49.718;11.902;2022-12-26T08:48:47;96173.44;;;4.14;100.00
2192;BME280;1102;49.718;11.902;2022-12-26T08:51:17;96204.88;;;4.42;100.00
2192;BME280;1102;49.718;11.902;2022-12-26T08:53:44;96212.13;;;4.31;100.00
2192;BME280;1102;49.718;11.902;2022-12-26T08:56:15;96180.03;;;4.26;100.00
2192;BME280;1102;49.718;11.902;2022-12-26T08:58:42;96214.38;;;4.52;100.00
2192;BME280;1102;49.718;11.902;2022-12-26T09:01:15;96215.84;;;4.58;100.00
2192;BME280;1102;49.718;11.902;2022-12-26T09:03:43;96222.22;;;4.52;100.00
2192;BME280;1102;49.718;11.902;2022-12-26T09:06:11;96209.84;;;4.57;100.00
2192;BME280;1102;49.718;11.902;2022-12-26T09:08:39;96197.13;;;4.51;100.00
2192;BME280;1102;49.718;11.902;2022-12-26T09:11:09;96200.91;;;4.58;100.00
2192;BME280;1102;49.718;11.902;2022-12-26T09:13:37;96175.38;;;4.78;100.00
2192;BME280;1102;49.718;11.902;2022-12-26T09:16:13;96172.41;;;4.70;100.00
2192;BME280;1102;49.718;11.902;2022-12-26T09:18:41;96169.31;;;4.82;100.00
2192;BME280;1102;49.718;11.902;2022-12-26T09:21:09;96175.97;;;5.38;100.00
2192;BME280;1102;49.718;11.902;2022-12-26T09:23:38;96209.94;;;6.02;100.00
2192;BME280;1102;49.718;11.902;2022-12-26T09:26:12;96215.63;;;6.26;100.00
2192;BME280;1102;49.718;11.902;2022-12-26T09:28:39;96224.41;;;6.44;100.00
2192;BME280;1102;49.718;11.902;2022-12-26T09:31:11;96213.22;;;6.38;100.00
2192;BME280;1102;49.718;11.902;2022-12-26T09:33:37;96244.56;;;6.66;100.00
2192;BME280;1102;49.718;11.902;2022-12-26T09:36:10;96255.13;;;6.74;100.00
2192;BME280;1102;49.718;11.902;2022-12-26T09:38:43;96262.84;;;6.79;100.00
2192;BME280;1102;49.718;11.902;2022-12-26T09:51:46;96248.97;;;7.36;100.00
2192;BME280;1102;49.718;11.902;2022-12-26T09:54:22;96273.59;;;7.57;100.00
2192;BME280;1102;49.718;11.902;2022-12-26T09:56:51;96217.09;;;7.29;100.00
2192;BME280;1102;49.718;11.902;2022-12-26T09:59:31;96266.03;;;7.64;100.00
2192;BME280;1102;49.718;11.902;2022-12-26T10:01:59;96231.34;;;7.45;100.00
2192;BME280;1102;49.718;11.902;2022-12-26T10:04:28;96271.47;;;7.77;100.00
2192;BME280;1102;49.718;11.902;2022-12-26T10:07:09;96270.06;;;7.79;100.00
2192;BME280;1102;49.718;11.902;2022-12-26T10:22:56;96249.63;;;7.76;100.00
2192;BME280;1102;49.718;11.902;2022-12-26T10:25:46;96251.97;;;7.78;100.00
2192;BME280;1102;49.718;11.902;2022-12-26T10:30:55;96244.06;;;7.69;100.00
2192;BME280;1102;49.718;11.902;2022-12-26T10:33:44;96230.59;;;7.62;100.00
2192;BME280;1102;49.718;11.902;2022-12-26T10:36:17;96237.88;;;7.65;100.00
2192;BME280;1102;49.718;11.902;2022-12-26T10:38:49;96234.94;;;7.66;100.00
2192;BME280;1102;49.718;11.902;2022-12-26T10:41:42;96277.94;;;7.88;100.00
2192;BME280;1102;49.718;11.902;2022-12-26T10:44:11;96283.84;;;7.85;100.00
2192;BME280;1102;49.718;11.902;2022-12-26T10:49:17;96242.81;;;7.49;100.00
2192;BME280;1102;49.718;11.902;2022-12-26T10:51:45;96227.94;;;7.36;100.00
2192;BME280;1102;49.718;11.902;2022-12-26T10:54:15;96303.34;;;7.84;100.00
2192;BME280;1102;49.718;11.902;2022-12-26T10:56:44;96269.28;;;7.61;100.00
2192;BME280;1102;49.718;11.902;2022-12-26T10:59:19;96220.34;;;7.43;100.00
2192;BME280;1102;49.718;11.902;2022-12-26T11:01:46;96264.50;;;7.63;100.00
2192;BME280;1102;49.718;11.902;2022-12-26T11:04:15;96280.59;;;7.79;100.00
2192;BME280;1102;49.718;11.902;2022-12-26T11:06:49;96281.69;;;7.78;100.00
2192;BME280;1102;49.718;11.902;2022-12-26T11:09:30;96285.88;;;7.79;100.00
2192;BME280;1102;49.718;11.902;2022-12-26T11:11:59;96282.59;;;7.74;100.00
2192;BME280;1102;49.718;11.902;2022-12-26T11:17:27;96263.41;;;7.64;100.00
2192;BME280;1102;49.718;11.902;2022-12-26T11:22:35;96280.72;;;7.74;100.00
2192;BME280;1102;49.718;11.902;2022-12-26T11:27:31;96288.66;;;7.83;100.00
2192;BME280;1102;49.718;11.902;2022-12-26T11:32:46;96264.47;;;7.72;100.00
2192;BME280;1102;49.718;11.902;2022-12-26T11:35:22;96284.47;;;7.82;100.00
2192;BME280;1102;49.718;11.902;2022-12-26T11:37:52;96256.91;;;7.62;100.00
2192;BME280;1102;49.718;11.902;2022-12-26T11:40:23;96281.97;;;7.85;100.00
2192;BME280;1102;49.718;11.902;2022-12-26T11:42:58;96288.78;;;7.86;100.00
2192;BME280;1102;49.718;11.902;2022-12-26T11:45:27;96248.72;;;7.63;100.00
2192;BME280;1102;49.718;11.902;2022-12-26T11:48:16;96271.13;;;7.87;100.00
2192;BME280;1102;49.718;11.902;2022-12-26T11:50:44;96262.97;;;7.88;100.00
2192;BME280;1102;49.718;11.902;2022-12-26T11:53:16;96268.03;;;7.85;100.00
2192;BME280;1102;49.718;11.902;2022-12-26T11:55:43;96243.44;;;7.72;100.00
2192;BME280;1102;49.718;11.902;2022-12-26T12:00:43;96256.59;;;7.81;100.00
2192;BME280;1102;49.718;11.902;2022-12-26T12:11:25;96228.75;;;7.62;100.00
2192;BME280;1102;49.718;11.902;2022-12-26T12:14:18;96264.19;;;7.82;100.00
2192;BME280;1102;49.718;11.902;2022-12-26T12:17:18;96232.16;;;7.63;100.00
2192;BME280;1102;49.718;11.902;2022-12-26T12:33:28;96281.84;;;7.82;100.00
2192;BME280;1102;49.718;11.902;2022-12-26T12:41:27;96270.84;;;7.80;100.00
2192;BME280;1102;49.718;11.902;2022-12-26T12:44:03;96236.00;;;7.57;100.00
2192;BME280;1102;49.718;11.902;2022-12-26T12:49:42;96255.03;;;7.54;100.00
2192;BME280;1102;49.718;11.902;2022-12-26T12:52:18;96285.53;;;7.81;100.00
2192;BME280;1102;49.718;11.902;2022-12-26T12:57:39;96269.91;;;7.76;100.00
2192;BME280;1102;49.718;11.902;2022-12-26T13:00:13;96282.16;;;7.80;100.00
2192;BME280;1102;49.718;11.902;2022-12-26T13:02:47;96291.75;;;7.76;100.00
2192;BME280;1102;49.718;11.902;2022-12-26T13:05:38;96291.25;;;7.74;100.00
2192;BME280;1102;49.718;11.902;2022-12-26T13:08:16;96286.78;;;7.75;100.00
2192;BME280;1102;49.718;11.902;2022-12-26T13:11:03;96260.44;;;7.57;100.00
2192;BME280;1102;49.718;11.902;2022-12-26T13:13:32;96300.09;;;7.78;100.00
2192;BME280;1102;49.718;11.902;2022-12-26T13:16:07;96295.94;;;7.77;100.00
2192;BME280;1102;49.718;11.902;2022-12-26T13:18:39;96188.31;;;7.15;100.00
2192;BME280;1102;49.718;11.902;2022-12-26T13:21:10;96284.31;;;7.78;100.00
2192;BME280;1102;49.718;11.902;2022-12-26T13:23:44;96275.94;;;7.85;100.00
2192;BME280;1102;49.718;11.902;2022-12-26T13:26:34;96285.38;;;7.86;100.00
2192;BME280;1102;49.718;11.902;2022-12-26T13:29:16;96280.91;;;7.86;100.00
2192;BME280;1102;49.718;11.902;2022-12-26T13:31:45;96220.19;;;7.39;100.00
2192;BME280;1102;49.718;11.902;2022-12-26T13:34:17;96293.47;;;7.89;100.00
2192;BME280;1102;49.718;11.902;2022-12-26T13:36:49;96284.94;;;7.84;100.00
2192;BME280;1102;49.718;11.902;2022-12-26T13:39:32;96275.16;;;7.84;100.00
2192;BME280;1102;49.718;11.902;2022-12-26T13:44:54;96254.56;;;7.60;100.00
2192;BME280;1102;49.718;11.902;2022-12-26T13:47:37;96289.88;;;7.85;100.00
2192;BME280;1102;49.718;11.902;2022-12-26T13:53:26;96286.94;;;7.78;100.00
2192;BME280;1102;49.718;11.902;2022-12-26T13:55:58;96292.66;;;7.80;100.00
2192;BME280;1102;49.718;11.902;2022-12-26T14:07:01;96302.28;;;7.76;100.00
2192;BME280;1102;49.718;11.902;2022-12-26T14:12:09;96301.50;;;7.76;100.00
2192;BME280;1102;49.718;11.902;2022-12-26T14:17:23;96306.59;;;7.72;100.00
2192;BME280;1102;49.718;11.902;2022-12-26T14:20:05;96305.81;;;7.71;100.00
2192;BME280;1102;49.718;11.902;2022-12-26T14:22:54;96284.59;;;7.59;100.00
2192;BME280;1102;49.718;11.902;2022-12-26T14:25:51;96301.31;;;7.72;100.00
2192;BME280;1102;49.718;11.902;2022-12-26T14:28:30;96314.16;;;7.74;100.00
2192;BME280;1102;49.718;11.902;2022-12-26T14:31:35;96301.78;;;7.65;100.00
2192;BME280;1102;49.718;11.902;2022-12-26T14:36:41;96308.75;;;7.70;100.00
2192;BME280;1102;49.718;11.902;2022-12-26T14:44:56;96303.19;;;7.71;100.00
2192;BME280;1102;49.718;11.902;2022-12-26T14:47:43;96305.50;;;7.73;100.00
2192;BME280;1102;49.718;11.902;2022-12-26T15:14:12;96267.22;;;7.41;100.00
2192;BME280;1102;49.718;11.902;2022-12-26T15:22:46;96310.78;;;7.64;100.00
2192;BME280;1102;49.718;11.902;2022-12-26T15:30:40;96306.25;;;7.56;100.00
2192;BME280;1102;49.718;11.902;2022-12-26T15:33:28;96290.63;;;7.51;100.00
2192;BME280;1102;49.718;11.902;2022-12-26T15:36:12;96305.16;;;7.57;100.00
2192;BME280;1102;49.718;11.902;2022-12-26T15:39:00;96266.28;;;7.28;100.00
2192;BME280;1102;49.718;11.902;2022-12-26T15:42:01;96301.75;;;7.48;100.00
2192;BME280;1102;49.718;11.902;2022-12-26T15:45:00;96302.22;;;7.50;100.00
2192;BME280;1102;49.718;11.902;2022-12-26T15:47:38;96286.88;;;7.35;100.00
2192;BME280;1102;49.718;11.902;2022-12-26T15:53:28;96307.63;;;7.45;100.00
2192;BME280;1102;49.718;11.902;2022-12-26T15:56:48;96300.50;;;7.37;100.00
2192;BME280;1102;49.718;11.902;2022-12-26T16:02:13;96303.75;;;7.43;100.00
2192;BME280;1102;49.718;11.902;2022-12-26T16:04:48;96266.09;;;7.16;100.00
2192;BME280;1102;49.718;11.902;2022-12-26T16:07:32;96311.78;;;7.46;100.00
2192;BME280;1102;49.718;11.902;2022-12-26T16:10:01;96306.22;;;7.39;100.00
2192;BME280;1102;49.718;11.902;2022-12-26T16:12:31;96326.22;;;7.49;100.00
2192;BME280;1102;49.718;11.902;2022-12-26T16:17:36;96318.13;;;7.45;100.00
2192;BME280;1102;49.718;11.902;2022-12-26T16:20:29;96309.16;;;7.46;100.00
2192;BME280;1102;49.718;11.902;2022-12-26T16:23:20;96289.63;;;7.30;100.00
2192;BME280;1102;49.718;11.902;2022-12-26T16:25:49;96288.69;;;7.26;100.00
2192;BME280;1102;49.718;11.902;2022-12-26T16:28:24;96311.75;;;7.29;100.00
2192;BME280;1102;49.718;11.902;2022-12-26T16:30:51;96335.78;;;7.45;100.00
2192;BME280;1102;49.718;11.902;2022-12-26T16:33:18;96273.34;;;7.10;100.00
2192;BME280;1102;49.718;11.902;2022-12-26T16:35:45;96302.34;;;7.36;100.00
2192;BME280;1102;49.718;11.902;2022-12-26T16:38:15;96315.03;;;7.43;100.00
2192;BME280;1102;49.718;11.902;2022-12-26T16:40:47;96318.31;;;7.49;100.00
2192;BME280;1102;49.718;11.902;2022-12-26T16:45:49;96283.59;;;7.29;100.00
2192;BME280;1102;49.718;11.902;2022-12-26T16:48:19;96280.19;;;7.29;100.00
2192;BME280;1102;49.718;11.902;2022-12-26T16:50:52;96317.06;;;7.46;100.00
2192;BME280;1102;49.718;11.902;2022-12-26T16:56:25;96272.94;;;7.26;100.00
2192;BME280;1102;49.718;11.902;2022-12-26T16:59:06;96272.78;;;7.22;100.00
2192;BME280;1102;49.718;11.902;2022-12-26T17:01:48;96306.22;;;7.39;100.00
2192;BME280;1102;49.718;11.902;2022-12-26T17:04:22;96300.81;;;7.35;100.00
2192;BME280;1102;49.718;11.902;2022-12-26T17:06:53;96298.34;;;7.39;100.00